sensor_id;sensor_type;location;lat;lon;timestamp;P1;durP1;ratioP1;P2;durP2;ratioP2
6737;SDS011;3406;49.902;8.596;2023-05-16T00:01:25;1.03;;;1.00;;
6737;SDS011;3406;49.902;8.596;2023-05-16T00:03:54;1.50;;;1.50;;
6737;SDS011;3406;49.902;8.596;2023-05-16T00:06:22;1.10;;;1.10;;
6737;SDS011;3406;49.902;8.596;2023-05-16T00:08:48;1.77;;;1.67;;
6737;SDS011;3406;49.902;8.596;2023-05-16T00:11:15;1.00;;;1.00;;
6737;SDS011;3406;49.902;8.596;2023-05-16T00:13:42;2.17;;;1.87;;
6737;SDS011;3406;49.902;8.596;2023-05-16T00:16:10;1.23;;;1.23;;
6737;SDS011;3406;49.902;8.596;2023-05-16T00:18:38;0.70;;;0.70;;
6737;SDS011;3406;49.902;8.596;2023-05-16T00:21:05;4.40;;;1.43;;
6737;SDS011;3406;49.902;8.596;2023-05-16T00:23:33;1.60;;;1.50;;
6737;SDS011;3406;49.902;8.596;2023-05-16T00:26:00;1.23;;;1.20;;
6737;SDS011;3406;49.902;8.596;2023-05-16T00:28:26;1.63;;;1.63;;
6737;SDS011;3406;49.902;8.596;2023-05-16T00:30:54;1.17;;;1.17;;
6737;SDS011;3406;49.902;8.596;2023-05-16T00:33:21;2.83;;;2.73;;
6737;SDS011;3406;49.902;8.596;2023-05-16T00:35:47;1.30;;;1.30;;
6737;SDS011;3406;49.902;8.596;2023-05-16T00:38:14;1.30;;;1.30;;
6737;SDS011;3406;49.902;8.596;2023-05-16T00:40:42;1.97;;;1.97;;
6737;SDS011;3406;49.902;8.596;2023-05-16T00:43:09;1.13;;;1.13;;
6737;SDS011;3406;49.902;8.596;2023-05-16T00:45:35;1.77;;;1.67;;
6737;SDS011;3406;49.902;8.596;2023-05-16T00:48:02;2.30;;;2.23;;
6737;SDS011;3406;49.902;8.596;2023-05-16T00:50:29;0.97;;;0.97;;
6737;SDS011;3406;49.902;8.596;2023-05-16T00:52:57;1.13;;;1.10;;
6737;SDS011;3406;49.902;8.596;2023-05-16T00:55:24;0.80;;;0.80;;
6737;SDS011;3406;49.902;8.596;2023-05-16T00:57:52;2.20;;;1.93;;
6737;SDS011;3406;49.902;8.596;2023-05-16T01:00:19;1.43;;;1.33;;
6737;SDS011;3406;49.902;8.596;2023-05-16T01:02:46;1.37;;;1.37;;
6737;SDS011;3406;49.902;8.596;2023-05-16T01:05:13;1.10;;;1.10;;
6737;SDS011;3406;49.902;8.596;2023-05-16T01:07:40;0.70;;;0.70;;
6737;SDS011;3406;49.902;8.596;2023-05-16T01:10:07;1.90;;;1.80;;
6737;SDS011;3406;49.902;8.596;2023-05-16T01:12:36;1.17;;;1.17;;
6737;SDS011;3406;49.902;8.596;2023-05-16T01:15:08;1.60;;;1.60;;
6737;SDS011;3406;49.902;8.596;2023-05-16T01:17:42;4.20;;;1.70;;
6737;SDS011;3406;49.902;8.596;2023-05-16T01:20:18;0.97;;;0.97;;
6737;SDS011;3406;49.902;8.596;2023-05-16T01:22:58;1.37;;;1.20;;
6737;SDS011;3406;49.902;8.596;2023-05-16T01:25:45;1.50;;;1.50;;
6737;SDS011;3406;49.902;8.596;2023-05-16T01:28:23;0.50;;;0.50;;
6737;SDS011;3406;49.902;8.596;2023-05-16T01:30:50;1.73;;;1.63;;
6737;SDS011;3406;49.902;8.596;2023-05-16T01:33:17;1.30;;;1.20;;
6737;SDS011;3406;49.902;8.596;2023-05-16T01:35:46;1.00;;;1.00;;
6737;SDS011;3406;49.902;8.596;2023-05-16T01:38:22;1.30;;;1.30;;
6737;SDS011;3406;49.902;8.596;2023-05-16T01:40:52;0.53;;;0.53;;
6737;SDS011;3406;49.902;8.596;2023-05-16T01:43:29;4.27;;;1.87;;
6737;SDS011;3406;49.902;8.596;2023-05-16T01:46:01;1.20;;;1.10;;
6737;SDS011;3406;49.902;8.596;2023-05-16T01:48:34;1.07;;;1.07;;
6737;SDS011;3406;49.902;8.596;2023-05-16T01:51:04;1.50;;;1.37;;
6737;SDS011;3406;49.902;8.596;2023-05-16T01:53:32;1.20;;;1.20;;
6737;SDS011;3406;49.902;8.596;2023-05-16T01:56:03;0.70;;;0.70;;
6737;SDS011;3406;49.902;8.596;2023-05-16T01:58:35;0.67;;;0.67;;
6737;SDS011;3406;49.902;8.596;2023-05-16T02:01:03;1.20;;;1.20;;
6737;SDS011;3406;49.902;8.596;2023-05-16T02:03:31;1.20;;;1.10;;
6737;SDS011;3406;49.902;8.596;2023-05-16T02:05:57;1.03;;;1.03;;
6737;SDS011;3406;49.902;8.596;2023-05-16T02:08:24;0.57;;;0.57;;
6737;SDS011;3406;49.902;8.596;2023-05-16T02:10:52;1.00;;;0.70;;
6737;SDS011;3406;49.902;8.596;2023-05-16T02:13:19;1.27;;;1.17;;
6737;SDS011;3406;49.902;8.596;2023-05-16T02:15:47;0.50;;;0.50;;
6737;SDS011;3406;49.902;8.596;2023-05-16T02:18:14;1.07;;;1.07;;
6737;SDS011;3406;49.902;8.596;2023-05-16T02:20:41;0.77;;;0.77;;
6737;SDS011;3406;49.902;8.596;2023-05-16T02:23:07;0.97;;;0.97;;
6737;SDS011;3406;49.902;8.596;2023-05-16T02:25:34;1.00;;;1.00;;
6737;SDS011;3406;49.902;8.596;2023-05-16T02:28:01;0.60;;;0.60;;
6737;SDS011;3406;49.902;8.596;2023-05-16T02:30:28;1.50;;;1.50;;
6737;SDS011;3406;49.902;8.596;2023-05-16T02:32:56;0.93;;;0.90;;
6737;SDS011;3406;49.902;8.596;2023-05-16T02:35:23;1.03;;;1.03;;
6737;SDS011;3406;49.902;8.596;2023-05-16T02:37:49;0.90;;;0.90;;
6737;SDS011;3406;49.902;8.596;2023-05-16T02:40:16;0.70;;;0.70;;
6737;SDS011;3406;49.902;8.596;2023-05-16T02:42:43;0.30;;;0.30;;
6737;SDS011;3406;49.902;8.596;2023-05-16T02:45:09;0.57;;;0.57;;
6737;SDS011;3406;49.902;8.596;2023-05-16T02:47:36;0.67;;;0.67;;
6737;SDS011;3406;49.902;8.596;2023-05-16T02:50:05;0.50;;;0.50;;
6737;SDS011;3406;49.902;8.596;2023-05-16T02:52:32;0.43;;;0.43;;
6737;SDS011;3406;49.902;8.596;2023-05-16T02:54:58;0.63;;;0.43;;
6737;SDS011;3406;49.902;8.596;2023-05-16T02:57:25;0.37;;;0.37;;
6737;SDS011;3406;49.902;8.596;2023-05-16T02:59:52;1.40;;;0.90;;
6737;SDS011;3406;49.902;8.596;2023-05-16T03:02:18;0.37;;;0.37;;
6737;SDS011;3406;49.902;8.596;2023-05-16T03:04:45;1.27;;;1.27;;
6737;SDS011;3406;49.902;8.596;2023-05-16T03:07:13;0.60;;;0.60;;
6737;SDS011;3406;49.902;8.596;2023-05-16T03:09:40;0.40;;;0.40;;
6737;SDS011;3406;49.902;8.596;2023-05-16T03:12:06;0.80;;;0.80;;
6737;SDS011;3406;49.902;8.596;2023-05-16T03:14:33;0.63;;;0.63;;
6737;SDS011;3406;49.902;8.596;2023-05-16T03:17:00;0.60;;;0.60;;
6737;SDS011;3406;49.902;8.596;2023-05-16T03:19:26;1.13;;;1.13;;
6737;SDS011;3406;49.902;8.596;2023-05-16T03:21:53;1.27;;;1.27;;
6737;SDS011;3406;49.902;8.596;2023-05-16T03:24:21;0.97;;;0.97;;
6737;SDS011;3406;49.902;8.596;2023-05-16T03:26:49;0.77;;;0.67;;
6737;SDS011;3406;49.902;8.596;2023-05-16T03:29:16;1.23;;;1.20;;
6737;SDS011;3406;49.902;8.596;2023-05-16T03:31:42;0.97;;;0.97;;
6737;SDS011;3406;49.902;8.596;2023-05-16T03:34:09;0.93;;;0.93;;
6737;SDS011;3406;49.902;8.596;2023-05-16T03:36:37;0.93;;;0.93;;
6737;SDS011;3406;49.902;8.596;2023-05-16T03:39:04;0.80;;;0.80;;
6737;SDS011;3406;49.902;8.596;2023-05-16T03:41:33;0.87;;;0.87;;
6737;SDS011;3406;49.902;8.596;2023-05-16T03:44:00;0.80;;;0.80;;
6737;SDS011;3406;49.902;8.596;2023-05-16T03:46:27;0.77;;;0.67;;
6737;SDS011;3406;49.902;8.596;2023-05-16T03:48:54;0.90;;;0.90;;
6737;SDS011;3406;49.902;8.596;2023-05-16T03:51:20;1.17;;;1.17;;
6737;SDS011;3406;49.902;8.596;2023-05-16T03:53:47;0.77;;;0.77;;
6737;SDS011;3406;49.902;8.596;2023-05-16T03:56:14;0.60;;;0.60;;
6737;SDS011;3406;49.902;8.596;2023-05-16T03:58:42;3.37;;;1.10;;
6737;SDS011;3406;49.902;8.596;2023-05-16T04:01:08;0.47;;;0.47;;
6737;SDS011;3406;49.902;8.596;2023-05-16T04:03:35;0.80;;;0.80;;
6737;SDS011;3406;49.902;8.596;2023-05-16T04:06:02;0.77;;;0.50;;
6737;SDS011;3406;49.902;8.596;2023-05-16T04:08:29;0.77;;;0.77;;
6737;SDS011;3406;49.902;8.596;2023-05-16T04:10:56;0.63;;;0.63;;
6737;SDS011;3406;49.902;8.596;2023-05-16T04:13:23;1.10;;;1.00;;
6737;SDS011;3406;49.902;8.596;2023-05-16T04:15:51;1.00;;;1.00;;
6737;SDS011;3406;49.902;8.596;2023-05-16T04:18:18;6.23;;;1.07;;
6737;SDS011;3406;49.902;8.596;2023-05-16T04:20:45;0.77;;;0.77;;
6737;SDS011;3406;49.902;8.596;2023-05-16T04:23:12;0.87;;;0.87;;
6737;SDS011;3406;49.902;8.596;2023-05-16T04:25:39;0.60;;;0.60;;
6737;SDS011;3406;49.902;8.596;2023-05-16T04:28:06;0.60;;;0.60;;
6737;SDS011;3406;49.902;8.596;2023-05-16T04:30:33;0.70;;;0.43;;
6737;SDS011;3406;49.902;8.596;2023-05-16T04:33:01;0.80;;;0.80;;
6737;SDS011;3406;49.902;8.596;2023-05-16T04:35:28;10.03;;;1.00;;
6737;SDS011;3406;49.902;8.596;2023-05-16T04:37:55;0.40;;;0.40;;
6737;SDS011;3406;49.902;8.596;2023-05-16T04:40:21;0.73;;;0.73;;
6737;SDS011;3406;49.902;8.596;2023-05-16T04:42:49;0.60;;;0.60;;
6737;SDS011;3406;49.902;8.596;2023-05-16T04:45:16;1.07;;;1.07;;
6737;SDS011;3406;49.902;8.596;2023-05-16T04:47:43;0.50;;;0.50;;
6737;SDS011;3406;49.902;8.596;2023-05-16T04:50:11;1.60;;;0.73;;
6737;SDS011;3406;49.902;8.596;2023-05-16T04:52:38;0.87;;;0.87;;
6737;SDS011;3406;49.902;8.596;2023-05-16T04:55:06;0.63;;;0.63;;
6737;SDS011;3406;49.902;8.596;2023-05-16T04:57:33;0.53;;;0.53;;
6737;SDS011;3406;49.902;8.596;2023-05-16T05:00:00;2.33;;;1.17;;
6737;SDS011;3406;49.902;8.596;2023-05-16T05:02:29;1.67;;;1.47;;
6737;SDS011;3406;49.902;8.596;2023-05-16T05:04:56;0.70;;;0.70;;
6737;SDS011;3406;49.902;8.596;2023-05-16T05:07:24;0.40;;;0.40;;
6737;SDS011;3406;49.902;8.596;2023-05-16T05:09:53;0.87;;;0.87;;
6737;SDS011;3406;49.902;8.596;2023-05-16T05:12:20;0.70;;;0.53;;
6737;SDS011;3406;49.902;8.596;2023-05-16T05:14:47;0.73;;;0.60;;
6737;SDS011;3406;49.902;8.596;2023-05-16T05:17:14;1.33;;;0.93;;
6737;SDS011;3406;49.902;8.596;2023-05-16T05:19:41;0.83;;;0.83;;
6737;SDS011;3406;49.902;8.596;2023-05-16T05:22:07;0.60;;;0.60;;
6737;SDS011;3406;49.902;8.596;2023-05-16T05:24:36;0.70;;;0.53;;
6737;SDS011;3406;49.902;8.596;2023-05-16T05:27:02;0.77;;;0.77;;
6737;SDS011;3406;49.902;8.596;2023-05-16T05:29:29;0.70;;;0.70;;
6737;SDS011;3406;49.902;8.596;2023-05-16T05:31:58;0.53;;;0.53;;
6737;SDS011;3406;49.902;8.596;2023-05-16T05:34:24;0.20;;;0.20;;
6737;SDS011;3406;49.902;8.596;2023-05-16T05:36:51;0.30;;;0.30;;
6737;SDS011;3406;49.902;8.596;2023-05-16T05:39:18;0.67;;;0.67;;
6737;SDS011;3406;49.902;8.596;2023-05-16T05:41:46;0.40;;;0.40;;
6737;SDS011;3406;49.902;8.596;2023-05-16T05:44:13;0.30;;;0.30;;
6737;SDS011;3406;49.902;8.596;2023-05-16T05:46:39;0.37;;;0.37;;
6737;SDS011;3406;49.902;8.596;2023-05-16T05:49:06;0.17;;;0.17;;
6737;SDS011;3406;49.902;8.596;2023-05-16T05:51:33;0.20;;;0.20;;
6737;SDS011;3406;49.902;8.596;2023-05-16T05:54:00;0.20;;;0.20;;
6737;SDS011;3406;49.902;8.596;2023-05-16T05:56:27;0.27;;;0.27;;
6737;SDS011;3406;49.902;8.596;2023-05-16T05:58:55;0.20;;;0.20;;
6737;SDS011;3406;49.902;8.596;2023-05-16T06:01:22;0.30;;;0.30;;
6737;SDS011;3406;49.902;8.596;2023-05-16T06:03:49;0.27;;;0.27;;
6737;SDS011;3406;49.902;8.596;2023-05-16T06:06:16;0.30;;;0.30;;
6737;SDS011;3406;49.902;8.596;2023-05-16T06:08:43;0.50;;;0.20;;
6737;SDS011;3406;49.902;8.596;2023-05-16T06:11:09;0.30;;;0.30;;
6737;SDS011;3406;49.902;8.596;2023-05-16T06:13:36;0.20;;;0.20;;
6737;SDS011;3406;49.902;8.596;2023-05-16T06:16:04;0.53;;;0.53;;
6737;SDS011;3406;49.902;8.596;2023-05-16T06:18:31;0.40;;;0.40;;
6737;SDS011;3406;49.902;8.596;2023-05-16T06:20:58;0.10;;;0.10;;
6737;SDS011;3406;49.902;8.596;2023-05-16T06:23:25;0.37;;;0.37;;
6737;SDS011;3406;49.902;8.596;2023-05-16T06:25:52;0.30;;;0.30;;
6737;SDS011;3406;49.902;8.596;2023-05-16T06:28:18;0.40;;;0.40;;
6737;SDS011;3406;49.902;8.596;2023-05-16T06:30:45;0.20;;;0.20;;
6737;SDS011;3406;49.902;8.596;2023-05-16T06:33:13;0.27;;;0.27;;
6737;SDS011;3406;49.902;8.596;2023-05-16T06:35:46;0.30;;;0.30;;
6737;SDS011;3406;49.902;8.596;2023-05-16T06:38:13;0.20;;;0.20;;
6737;SDS011;3406;49.902;8.596;2023-05-16T06:40:40;0.20;;;0.20;;
6737;SDS011;3406;49.902;8.596;2023-05-16T06:43:07;0.30;;;0.30;;
6737;SDS011;3406;49.902;8.596;2023-05-16T06:45:33;0.37;;;0.30;;
6737;SDS011;3406;49.902;8.596;2023-05-16T06:48:00;0.30;;;0.30;;
6737;SDS011;3406;49.902;8.596;2023-05-16T06:50:28;0.60;;;0.60;;
6737;SDS011;3406;49.902;8.596;2023-05-16T06:52:55;0.23;;;0.23;;
6737;SDS011;3406;49.902;8.596;2023-05-16T06:55:21;0.30;;;0.30;;
6737;SDS011;3406;49.902;8.596;2023-05-16T06:57:48;0.20;;;0.20;;
6737;SDS011;3406;49.902;8.596;2023-05-16T07:00:15;0.20;;;0.20;;
6737;SDS011;3406;49.902;8.596;2023-05-16T07:02:42;0.20;;;0.20;;
6737;SDS011;3406;49.902;8.596;2023-05-16T07:05:09;1.07;;;0.97;;
6737;SDS011;3406;49.902;8.596;2023-05-16T07:07:37;0.20;;;0.20;;
6737;SDS011;3406;49.902;8.596;2023-05-16T07:10:04;0.20;;;0.20;;
6737;SDS011;3406;49.902;8.596;2023-05-16T07:12:31;0.10;;;0.10;;
6737;SDS011;3406;49.902;8.596;2023-05-16T07:14:58;0.10;;;0.10;;
6737;SDS011;3406;49.902;8.596;2023-05-16T07:17:24;0.20;;;0.20;;
6737;SDS011;3406;49.902;8.596;2023-05-16T07:19:51;0.10;;;0.10;;
6737;SDS011;3406;49.902;8.596;2023-05-16T07:22:18;0.20;;;0.20;;
6737;SDS011;3406;49.902;8.596;2023-05-16T07:24:46;0.27;;;0.27;;
6737;SDS011;3406;49.902;8.596;2023-05-16T07:27:12;0.20;;;0.20;;
6737;SDS011;3406;49.902;8.596;2023-05-16T07:29:39;0.20;;;0.20;;
6737;SDS011;3406;49.902;8.596;2023-05-16T07:32:06;0.30;;;0.30;;
6737;SDS011;3406;49.902;8.596;2023-05-16T07:34:33;0.20;;;0.20;;
6737;SDS011;3406;49.902;8.596;2023-05-16T07:37:00;0.30;;;0.30;;
6737;SDS011;3406;49.902;8.596;2023-05-16T07:39:27;0.30;;;0.30;;
6737;SDS011;3406;49.902;8.596;2023-05-16T07:41:55;0.10;;;0.10;;
6737;SDS011;3406;49.902;8.596;2023-05-16T07:44:22;0.30;;;0.30;;
6737;SDS011;3406;49.902;8.596;2023-05-16T07:46:49;0.20;;;0.20;;
6737;SDS011;3406;49.902;8.596;2023-05-16T07:49:15;0.20;;;0.20;;
6737;SDS011;3406;49.902;8.596;2023-05-16T07:51:45;0.10;;;0.10;;
6737;SDS011;3406;49.902;8.596;2023-05-16T07:54:12;0.37;;;0.37;;
6737;SDS011;3406;49.902;8.596;2023-05-16T07:56:39;0.20;;;0.20;;
6737;SDS011;3406;49.902;8.596;2023-05-16T07:59:07;0.10;;;0.10;;
6737;SDS011;3406;49.902;8.596;2023-05-16T08:01:34;0.30;;;0.30;;
6737;SDS011;3406;49.902;8.596;2023-05-16T08:04:00;0.20;;;0.20;;
6737;SDS011;3406;49.902;8.596;2023-05-16T08:06:27;0.20;;;0.20;;
6737;SDS011;3406;49.902;8.596;2023-05-16T08:08:55;0.30;;;0.30;;
6737;SDS011;3406;49.902;8.596;2023-05-16T08:11:21;0.20;;;0.20;;
6737;SDS011;3406;49.902;8.596;2023-05-16T08:13:48;0.20;;;0.20;;
6737;SDS011;3406;49.902;8.596;2023-05-16T08:16:16;0.20;;;0.20;;
6737;SDS011;3406;49.902;8.596;2023-05-16T08:18:43;0.20;;;0.20;;
6737;SDS011;3406;49.902;8.596;2023-05-16T08:21:10;0.20;;;0.20;;
6737;SDS011;3406;49.902;8.596;2023-05-16T08:23:38;0.20;;;0.20;;
6737;SDS011;3406;49.902;8.596;2023-05-16T08:26:04;0.23;;;0.23;;
6737;SDS011;3406;49.902;8.596;2023-05-16T08:28:32;0.20;;;0.20;;
6737;SDS011;3406;49.902;8.596;2023-05-16T08:30:58;0.20;;;0.20;;
6737;SDS011;3406;49.902;8.596;2023-05-16T08:33:26;0.23;;;0.23;;
6737;SDS011;3406;49.902;8.596;2023-05-16T08:35:53;0.20;;;0.20;;
6737;SDS011;3406;49.902;8.596;2023-05-16T08:38:20;0.20;;;0.20;;
6737;SDS011;3406;49.902;8.596;2023-05-16T08:40:46;0.20;;;0.20;;
6737;SDS011;3406;49.902;8.596;2023-05-16T08:43:13;0.40;;;0.40;;
6737;SDS011;3406;49.902;8.596;2023-05-16T08:45:40;0.13;;;0.13;;
6737;SDS011;3406;49.902;8.596;2023-05-16T08:48:06;0.13;;;0.13;;
6737;SDS011;3406;49.902;8.596;2023-05-16T08:50:37;0.20;;;0.20;;
6737;SDS011;3406;49.902;8.596;2023-05-16T08:53:07;0.10;;;0.10;;
6737;SDS011;3406;49.902;8.596;2023-05-16T08:55:35;0.20;;;0.20;;
6737;SDS011;3406;49.902;8.596;2023-05-16T08:58:04;0.20;;;0.20;;
6737;SDS011;3406;49.902;8.596;2023-05-16T09:00:31;0.10;;;0.10;;
6737;SDS011;3406;49.902;8.596;2023-05-16T09:02:58;0.10;;;0.10;;
6737;SDS011;3406;49.902;8.596;2023-05-16T09:05:25;0.10;;;0.10;;
6737;SDS011;3406;49.902;8.596;2023-05-16T09:07:56;0.20;;;0.20;;
6737;SDS011;3406;49.902;8.596;2023-05-16T09:10:22;0.20;;;0.20;;
6737;SDS011;3406;49.902;8.596;2023-05-16T09:12:49;0.20;;;0.20;;
6737;SDS011;3406;49.902;8.596;2023-05-16T09:15:16;0.20;;;0.20;;
6737;SDS011;3406;49.902;8.596;2023-05-16T09:17:45;0.30;;;0.30;;
6737;SDS011;3406;49.902;8.596;2023-05-16T09:20:13;0.17;;;0.17;;
6737;SDS011;3406;49.902;8.596;2023-05-16T09:22:49;0.20;;;0.20;;
6737;SDS011;3406;49.902;8.596;2023-05-16T09:25:18;0.20;;;0.20;;
6737;SDS011;3406;49.902;8.596;2023-05-16T09:27:46;0.27;;;0.27;;
6737;SDS011;3406;49.902;8.596;2023-05-16T09:30:13;0.20;;;0.20;;
6737;SDS011;3406;49.902;8.596;2023-05-16T09:32:42;0.20;;;0.20;;
6737;SDS011;3406;49.902;8.596;2023-05-16T09:35:10;0.10;;;0.10;;
6737;SDS011;3406;49.902;8.596;2023-05-16T09:37:43;0.20;;;0.20;;
6737;SDS011;3406;49.902;8.596;2023-05-16T09:40:10;0.10;;;0.10;;
6737;SDS011;3406;49.902;8.596;2023-05-16T09:42:39;0.20;;;0.20;;
6737;SDS011;3406;49.902;8.596;2023-05-16T09:45:06;0.20;;;0.20;;
6737;SDS011;3406;49.902;8.596;2023-05-16T09:47:36;0.20;;;0.20;;
6737;SDS011;3406;49.902;8.596;2023-05-16T09:50:09;0.20;;;0.20;;
6737;SDS011;3406;49.902;8.596;2023-05-16T09:52:36;0.33;;;0.33;;
6737;SDS011;3406;49.902;8.596;2023-05-16T09:55:05;0.73;;;0.30;;
6737;SDS011;3406;49.902;8.596;2023-05-16T09:57:32;1.17;;;0.40;;
6737;SDS011;3406;49.902;8.596;2023-05-16T10:00:05;0.10;;;0.10;;
6737;SDS011;3406;49.902;8.596;2023-05-16T10:02:35;0.20;;;0.20;;
6737;SDS011;3406;49.902;8.596;2023-05-16T10:05:03;0.30;;;0.30;;
6737;SDS011;3406;49.902;8.596;2023-05-16T10:07:30;0.20;;;0.20;;
6737;SDS011;3406;49.902;8.596;2023-05-16T10:09:58;0.30;;;0.30;;
6737;SDS011;3406;49.902;8.596;2023-05-16T10:12:28;0.30;;;0.30;;
6737;SDS011;3406;49.902;8.596;2023-05-16T10:14:56;0.20;;;0.20;;
6737;SDS011;3406;49.902;8.596;2023-05-16T10:17:26;0.20;;;0.20;;
6737;SDS011;3406;49.902;8.596;2023-05-16T10:19:56;0.20;;;0.20;;
6737;SDS011;3406;49.902;8.596;2023-05-16T10:22:26;0.20;;;0.20;;
6737;SDS011;3406;49.902;8.596;2023-05-16T10:24:55;0.10;;;0.10;;
6737;SDS011;3406;49.902;8.596;2023-05-16T10:27:29;0.10;;;0.10;;
6737;SDS011;3406;49.902;8.596;2023-05-16T10:29:56;0.13;;;0.13;;
6737;SDS011;3406;49.902;8.596;2023-05-16T10:32:24;0.37;;;0.37;;
6737;SDS011;3406;49.902;8.596;2023-05-16T10:34:53;0.10;;;0.10;;
6737;SDS011;3406;49.902;8.596;2023-05-16T10:37:20;0.10;;;0.10;;
6737;SDS011;3406;49.902;8.596;2023-05-16T10:39:48;0.10;;;0.10;;
6737;SDS011;3406;49.902;8.596;2023-05-16T10:42:15;0.20;;;0.20;;
6737;SDS011;3406;49.902;8.596;2023-05-16T10:44:44;0.27;;;0.27;;
6737;SDS011;3406;49.902;8.596;2023-05-16T10:47:10;0.20;;;0.20;;
6737;SDS011;3406;49.902;8.596;2023-05-16T10:49:40;0.20;;;0.20;;
6737;SDS011;3406;49.902;8.596;2023-05-16T10:52:07;0.23;;;0.23;;
6737;SDS011;3406;49.902;8.596;2023-05-16T10:54:35;0.43;;;0.40;;
6737;SDS011;3406;49.902;8.596;2023-05-16T10:57:03;0.20;;;0.20;;
6737;SDS011;3406;49.902;8.596;2023-05-16T10:59:38;0.20;;;0.20;;
6737;SDS011;3406;49.902;8.596;2023-05-16T11:02:19;0.10;;;0.10;;
6737;SDS011;3406;49.902;8.596;2023-05-16T11:04:49;0.20;;;0.20;;
6737;SDS011;3406;49.902;8.596;2023-05-16T11:07:16;2.23;;;0.30;;
6737;SDS011;3406;49.902;8.596;2023-05-16T11:09:44;0.70;;;0.70;;
6737;SDS011;3406;49.902;8.596;2023-05-16T11:12:19;0.20;;;0.20;;
6737;SDS011;3406;49.902;8.596;2023-05-16T11:14:48;0.20;;;0.20;;
6737;SDS011;3406;49.902;8.596;2023-05-16T11:17:19;0.23;;;0.23;;
6737;SDS011;3406;49.902;8.596;2023-05-16T11:19:47;0.20;;;0.20;;
6737;SDS011;3406;49.902;8.596;2023-05-16T11:22:23;0.30;;;0.30;;
6737;SDS011;3406;49.902;8.596;2023-05-16T11:24:51;0.20;;;0.20;;
6737;SDS011;3406;49.902;8.596;2023-05-16T11:27:21;6.63;;;0.33;;
6737;SDS011;3406;49.902;8.596;2023-05-16T11:29:50;0.20;;;0.20;;
6737;SDS011;3406;49.902;8.596;2023-05-16T11:32:19;0.30;;;0.30;;
6737;SDS011;3406;49.902;8.596;2023-05-16T11:34:48;0.20;;;0.20;;
6737;SDS011;3406;49.902;8.596;2023-05-16T11:37:17;1.70;;;0.77;;
6737;SDS011;3406;49.902;8.596;2023-05-16T11:39:45;0.87;;;0.87;;
6737;SDS011;3406;49.902;8.596;2023-05-16T11:42:11;0.20;;;0.20;;
6737;SDS011;3406;49.902;8.596;2023-05-16T11:44:38;3.73;;;0.53;;
6737;SDS011;3406;49.902;8.596;2023-05-16T11:47:05;0.23;;;0.23;;
6737;SDS011;3406;49.902;8.596;2023-05-16T11:49:32;1.00;;;0.20;;
6737;SDS011;3406;49.902;8.596;2023-05-16T11:52:01;0.10;;;0.10;;
6737;SDS011;3406;49.902;8.596;2023-05-16T11:54:28;0.73;;;0.73;;
6737;SDS011;3406;49.902;8.596;2023-05-16T11:56:55;0.20;;;0.20;;
6737;SDS011;3406;49.902;8.596;2023-05-16T11:59:22;0.20;;;0.20;;
6737;SDS011;3406;49.902;8.596;2023-05-16T12:01:49;0.30;;;0.30;;
6737;SDS011;3406;49.902;8.596;2023-05-16T12:04:16;0.20;;;0.20;;
6737;SDS011;3406;49.902;8.596;2023-05-16T12:06:44;0.30;;;0.30;;
6737;SDS011;3406;49.902;8.596;2023-05-16T12:09:25;0.17;;;0.17;;
6737;SDS011;3406;49.902;8.596;2023-05-16T12:11:52;0.53;;;0.53;;
6737;SDS011;3406;49.902;8.596;2023-05-16T12:14:19;0.10;;;0.10;;
6737;SDS011;3406;49.902;8.596;2023-05-16T12:16:46;0.20;;;0.20;;
6737;SDS011;3406;49.902;8.596;2023-05-16T12:19:14;0.20;;;0.20;;
6737;SDS011;3406;49.902;8.596;2023-05-16T12:21:41;1.07;;;1.07;;
6737;SDS011;3406;49.902;8.596;2023-05-16T12:24:08;0.20;;;0.20;;
6737;SDS011;3406;49.902;8.596;2023-05-16T12:26:38;0.17;;;0.17;;
6737;SDS011;3406;49.902;8.596;2023-05-16T12:29:07;0.20;;;0.20;;
6737;SDS011;3406;49.902;8.596;2023-05-16T12:31:35;0.40;;;0.40;;
6737;SDS011;3406;49.902;8.596;2023-05-16T12:34:04;0.27;;;0.27;;
6737;SDS011;3406;49.902;8.596;2023-05-16T12:36:39;0.20;;;0.20;;
6737;SDS011;3406;49.902;8.596;2023-05-16T12:39:10;0.20;;;0.20;;
6737;SDS011;3406;49.902;8.596;2023-05-16T12:41:40;0.40;;;0.40;;
6737;SDS011;3406;49.902;8.596;2023-05-16T12:44:11;0.20;;;0.20;;
6737;SDS011;3406;49.902;8.596;2023-05-16T12:46:40;0.30;;;0.30;;
6737;SDS011;3406;49.902;8.596;2023-05-16T12:49:08;0.20;;;0.20;;
6737;SDS011;3406;49.902;8.596;2023-05-16T12:51:34;0.33;;;0.33;;
6737;SDS011;3406;49.902;8.596;2023-05-16T12:54:06;0.23;;;0.23;;
6737;SDS011;3406;49.902;8.596;2023-05-16T12:56:33;0.10;;;0.10;;
6737;SDS011;3406;49.902;8.596;2023-05-16T12:59:02;0.20;;;0.20;;
6737;SDS011;3406;49.902;8.596;2023-05-16T13:01:28;0.10;;;0.10;;
6737;SDS011;3406;49.902;8.596;2023-05-16T13:03:55;0.30;;;0.30;;
6737;SDS011;3406;49.902;8.596;2023-05-16T13:06:22;0.20;;;0.20;;
6737;SDS011;3406;49.902;8.596;2023-05-16T13:08:48;0.50;;;0.50;;
6737;SDS011;3406;49.902;8.596;2023-05-16T13:11:15;0.10;;;0.10;;
6737;SDS011;3406;49.902;8.596;2023-05-16T13:13:43;0.80;;;0.37;;
6737;SDS011;3406;49.902;8.596;2023-05-16T13:16:11;0.20;;;0.20;;
6737;SDS011;3406;49.902;8.596;2023-05-16T13:18:37;0.27;;;0.27;;
6737;SDS011;3406;49.902;8.596;2023-05-16T13:21:04;0.50;;;0.50;;
6737;SDS011;3406;49.902;8.596;2023-05-16T13:23:31;0.10;;;0.10;;
6737;SDS011;3406;49.902;8.596;2023-05-16T13:25:58;0.13;;;0.13;;
6737;SDS011;3406;49.902;8.596;2023-05-16T13:28:24;0.20;;;0.20;;
6737;SDS011;3406;49.902;8.596;2023-05-16T13:30:51;0.30;;;0.30;;
6737;SDS011;3406;49.902;8.596;2023-05-16T13:33:19;0.30;;;0.30;;
6737;SDS011;3406;49.902;8.596;2023-05-16T13:35:48;0.10;;;0.10;;
6737;SDS011;3406;49.902;8.596;2023-05-16T13:38:15;0.57;;;0.57;;
6737;SDS011;3406;49.902;8.596;2023-05-16T13:40:42;0.10;;;0.10;;
6737;SDS011;3406;49.902;8.596;2023-05-16T13:43:09;0.10;;;0.10;;
6737;SDS011;3406;49.902;8.596;2023-05-16T13:45:38;0.10;;;0.10;;
6737;SDS011;3406;49.902;8.596;2023-05-16T13:48:05;0.10;;;0.10;;
6737;SDS011;3406;49.902;8.596;2023-05-16T13:50:33;0.30;;;0.30;;
6737;SDS011;3406;49.902;8.596;2023-05-16T13:53:00;0.10;;;0.10;;
6737;SDS011;3406;49.902;8.596;2023-05-16T13:55:26;0.10;;;0.10;;
6737;SDS011;3406;49.902;8.596;2023-05-16T13:57:53;0.10;;;0.10;;
6737;SDS011;3406;49.902;8.596;2023-05-16T14:00:20;1.33;;;0.13;;
6737;SDS011;3406;49.902;8.596;2023-05-16T14:02:46;0.20;;;0.20;;
6737;SDS011;3406;49.902;8.596;2023-05-16T14:05:13;0.10;;;0.10;;
6737;SDS011;3406;49.902;8.596;2023-05-16T14:07:41;0.30;;;0.30;;
6737;SDS011;3406;49.902;8.596;2023-05-16T14:10:08;0.10;;;0.10;;
6737;SDS011;3406;49.902;8.596;2023-05-16T14:12:35;0.10;;;0.10;;
6737;SDS011;3406;49.902;8.596;2023-05-16T14:15:02;0.20;;;0.20;;
6737;SDS011;3406;49.902;8.596;2023-05-16T14:17:29;0.10;;;0.10;;
6737;SDS011;3406;49.902;8.596;2023-05-16T14:19:56;0.20;;;0.20;;
6737;SDS011;3406;49.902;8.596;2023-05-16T14:22:23;0.13;;;0.13;;
6737;SDS011;3406;49.902;8.596;2023-05-16T14:24:51;0.10;;;0.10;;
6737;SDS011;3406;49.902;8.596;2023-05-16T14:27:17;0.10;;;0.10;;
6737;SDS011;3406;49.902;8.596;2023-05-16T14:29:44;0.47;;;0.47;;
6737;SDS011;3406;49.902;8.596;2023-05-16T14:32:12;0.30;;;0.30;;
6737;SDS011;3406;49.902;8.596;2023-05-16T14:34:39;0.10;;;0.10;;
6737;SDS011;3406;49.902;8.596;2023-05-16T14:37:06;0.30;;;0.30;;
6737;SDS011;3406;49.902;8.596;2023-05-16T14:39:34;0.20;;;0.20;;
6737;SDS011;3406;49.902;8.596;2023-05-16T14:42:02;1.53;;;1.40;;
6737;SDS011;3406;49.902;8.596;2023-05-16T14:44:29;0.10;;;0.10;;
6737;SDS011;3406;49.902;8.596;2023-05-16T14:46:55;0.27;;;0.27;;
6737;SDS011;3406;49.902;8.596;2023-05-16T14:49:22;0.10;;;0.10;;
6737;SDS011;3406;49.902;8.596;2023-05-16T14:51:48;0.30;;;0.30;;
6737;SDS011;3406;49.902;8.596;2023-05-16T14:54:15;0.20;;;0.20;;
6737;SDS011;3406;49.902;8.596;2023-05-16T14:56:43;0.50;;;0.50;;
6737;SDS011;3406;49.902;8.596;2023-05-16T14:59:11;0.10;;;0.10;;
6737;SDS011;3406;49.902;8.596;2023-05-16T15:01:38;0.10;;;0.10;;
6737;SDS011;3406;49.902;8.596;2023-05-16T15:04:05;0.50;;;0.50;;
6737;SDS011;3406;49.902;8.596;2023-05-16T15:06:31;0.10;;;0.10;;
6737;SDS011;3406;49.902;8.596;2023-05-16T15:08:59;0.10;;;0.10;;
6737;SDS011;3406;49.902;8.596;2023-05-16T15:11:27;0.20;;;0.20;;
6737;SDS011;3406;49.902;8.596;2023-05-16T15:13:53;0.20;;;0.20;;
6737;SDS011;3406;49.902;8.596;2023-05-16T15:16:22;0.20;;;0.20;;
6737;SDS011;3406;49.902;8.596;2023-05-16T15:18:49;0.10;;;0.10;;